Time;durP1;ratioP1;P1;durP2;ratioP2;P2;SDS_P1;SDS_P2;PMS_P1;PMS_P2;Temp;Humidity;BMP_temperature;BMP_pressure;BME280_temperature;BME280_humidity;BME280_pressure;Samples;Min_cycle;Max_cycle;Signal;HPM_P1;HPM_P2
2021/11/03 00:01:58;;;;;;;56.97;21.67;;;;;;;3.38;84.52;99564.22;5052817;28;20540;-63
2021/11/03 00:04:23;;;;;;;59.78;23.00;;;;;;;3.44;84.48;99567.91;5036384;28;20048;-62
2021/11/03 00:06:49;;;;;;;51.50;21.17;;;;;;;3.34;84.51;99563.78;5054179;28;20330;-62
2021/11/03 00:09:15;;;;;;;51.03;23.23;;;;;;;3.33;84.62;99556.91;5054080;28;20092;-62
2021/11/03 00:11:41;;;;;;;65.82;23.77;;;;;;;3.39;84.82;99560.59;5053075;28;20388;-62
2021/11/03 00:14:07;;;;;;;51.25;23.25;;;;;;;3.39;84.77;99563.22;5053519;28;20041;-61
2021/11/03 00:16:33;;;;;;;53.38;21.13;;;;;;;3.41;84.83;99559.44;5054200;28;20402;-63
2021/11/03 00:18:58;;;;;;;53.72;21.67;;;;;;;3.49;84.38;99555.84;5053654;28;20052;-62
2021/11/03 00:21:24;;;;;;;55.40;22.15;;;;;;;3.53;84.75;99558.91;5053705;28;20057;-63
2021/11/03 00:23:50;;;;;;;53.22;21.65;;;;;;;3.60;84.71;99554.56;5052109;28;20044;-62
2021/11/03 00:26:16;;;;;;;49.33;22.95;;;;;;;3.63;84.47;99551.56;5053432;28;20514;-62
2021/11/03 00:28:42;;;;;;;52.88;22.58;;;;;;;3.63;84.59;99547.13;5052503;28;20045;-62
2021/11/03 00:31:08;;;;;;;63.22;25.50;;;;;;;3.62;84.58;99547.31;5053881;28;20098;-62
2021/11/03 00:33:33;;;;;;;68.25;24.50;;;;;;;3.55;85.04;99560.34;5053482;28;20055;-62
2021/11/03 00:36:00;;;;;;;64.75;27.48;;;;;;;3.54;84.38;99550.88;5053417;28;20037;-61
2021/11/03 00:38:27;;;;;;;80.45;31.13;;;;;;;3.52;84.70;99555.47;5053384;28;20176;-62
2021/11/03 00:40:53;;;;;;;66.65;26.48;;;;;;;3.53;84.61;99551.88;5052183;28;20110;-62
2021/11/03 00:43:19;;;;;;;62.60;24.02;;;;;;;3.50;84.75;99547.00;5051836;28;20096;-61
2021/11/03 00:45:46;;;;;;;60.63;24.90;;;;;;;3.55;85.04;99554.28;5035441;28;20101;-63
2021/11/03 00:48:12;;;;;;;58.28;21.75;;;;;;;3.50;84.75;99549.63;5053388;28;20112;-62
2021/11/03 00:50:38;;;;;;;48.80;21.23;;;;;;;3.48;85.14;99542.94;5053381;28;20628;-62
2021/11/03 00:53:05;;;;;;;53.50;21.13;;;;;;;3.61;85.03;99550.94;5053220;28;20456;-62
2021/11/03 00:55:31;;;;;;;46.13;22.90;;;;;;;3.66;84.74;99553.00;5051986;28;20079;-62
2021/11/03 00:57:57;;;;;;;44.42;21.63;;;;;;;3.66;84.31;99550.38;5051618;28;20052;-61
2021/11/03 01:00:23;;;;;;;44.20;19.58;;;;;;;3.61;85.15;99546.50;5051843;28;20080;-62
2021/11/03 01:02:50;;;;;;;45.40;19.50;;;;;;;3.69;84.76;99553.41;5052425;28;20091;-61
2021/11/03 01:05:19;;;;;;;40.60;18.70;;;;;;;3.70;84.16;99536.69;5051818;28;20049;-61
2021/11/03 01:07:46;;;;;;;39.28;17.38;;;;;;;3.76;84.39;99540.38;5053003;28;20474;-62
2021/11/03 01:10:12;;;;;;;41.50;19.25;;;;;;;3.86;83.88;99551.34;5053121;28;20482;-62
2021/11/03 01:12:39;;;;;;;42.00;19.55;;;;;;;3.90;84.08;99551.78;5051721;28;20040;-62
2021/11/03 01:15:10;;;;;;;41.13;17.23;;;;;;;3.83;84.35;99534.19;5051483;28;20144;-62
2021/11/03 01:17:36;;;;;;;;;;;;;;;3.87;84.20;99538.03;5034715;28;20044;-62
2021/11/03 01:20:04;;;;;;;41.10;16.60;;;;;;;3.89;83.73;99540.47;5052659;28;19925;-62
2021/11/03 01:22:30;;;;;;;41.83;18.15;;;;;;;3.86;84.45;99540.88;5051342;28;20506;-62
2021/11/03 01:24:56;;;;;;;43.67;16.88;;;;;;;3.92;83.75;99539.28;5052881;28;20059;-61
2021/11/03 01:27:22;;;;;;;47.28;18.65;;;;;;;3.91;84.47;99529.78;5052545;28;20094;-63
2021/11/03 01:29:47;;;;;;;47.97;21.38;;;;;;;3.82;84.84;99532.56;5051265;28;20060;-61
2021/11/03 01:32:13;;;;;;;44.40;18.25;;;;;;;3.89;83.96;99537.06;5052460;28;20049;-62
2021/11/03 01:34:39;;;;;;;47.33;21.67;;;;;;;3.90;83.91;99530.78;5051122;28;20041;-61
2021/11/03 01:37:05;;;;;;;47.08;20.08;;;;;;;3.95;83.96;99528.44;5052426;28;20538;-62
2021/11/03 01:39:31;;;;;;;37.08;17.15;;;;;;;3.95;83.70;99528.44;5050771;28;20049;-61
2021/11/03 01:41:57;;;;;;;42.88;18.58;;;;;;;4.06;83.58;99530.53;5050429;28;20113;-62
2021/11/03 01:44:24;;;;;;;36.88;17.33;;;;;;;4.13;83.53;99522.69;5051611;28;20179;-62
2021/11/03 01:47:35;;;;;;;44.47;18.75;;;;;;;4.12;83.63;99529.75;5051028;28;20045;-62
2021/11/03 01:50:05;;;;;;;38.42;18.25;;;;;;;4.03;84.02;99523.84;5050920;28;20056;-62
2021/11/03 01:52:31;;;;;;;39.80;17.27;;;;;;;4.02;83.77;99518.78;5050907;28;20076;-62
2021/11/03 01:54:57;;;;;;;40.85;18.38;;;;;;;4.07;83.75;99521.66;5034181;28;20075;-61
2021/11/03 01:57:30;;;;;;;39.55;17.17;;;;;;;4.12;83.80;99521.06;5050748;28;20075;-62
2021/11/03 01:59:59;;;;;;;35.70;16.73;;;;;;;4.13;83.86;99517.44;5034213;28;20047;-61
2021/11/03 02:02:31;;;;;;;39.92;16.98;;;;;;;4.13;83.24;99514.81;5050584;28;20048;-59
2021/11/03 02:04:57;;;;;;;37.35;17.38;;;;;;;4.10;83.11;99514.19;5050316;28;20075;-61
2021/11/03 02:07:27;;;;;;;38.35;16.50;;;;;;;4.12;83.90;99516.63;5050436;28;20057;-62
2021/11/03 02:09:56;;;;;;;35.03;16.77;;;;;;;4.16;84.10;99522.31;5050480;28;20049;-62
2021/11/03 02:12:26;;;;;;;41.08;17.98;;;;;;;4.13;83.98;99520.06;5050482;28;20052;-61
2021/11/03 02:14:53;;;;;;;36.60;17.92;;;;;;;4.13;84.25;99523.50;5049559;28;20139;-61
2021/11/03 02:17:21;;;;;;;38.08;17.05;;;;;;;4.15;83.29;99515.41;5050717;28;20469;-63
2021/11/03 02:19:48;;;;;;;39.60;16.85;;;;;;;4.16;84.01;99519.69;5033662;28;20057;-62
2021/11/03 02:22:41;;;;;;;40.90;16.52;;;;;;;4.21;83.73;99519.94;5033780;28;20045;-61
2021/11/03 02:25:17;;;;;;;37.13;18.05;;;;;;;4.21;83.82;99518.09;5051159;28;20045;-61
2021/11/03 02:27:46;;;;;;;40.55;16.65;;;;;;;4.27;83.10;99525.22;5051447;28;20041;-62
2021/11/03 02:30:16;;;;;;;37.25;18.00;;;;;;;4.24;83.71;99506.41;5050150;28;20423;-61
2021/11/03 02:32:43;;;;;;;36.17;16.98;;;;;;;4.26;83.92;99515.69;5050255;28;20076;-61
2021/11/03 02:35:11;;;;;;;35.58;16.60;;;;;;;4.32;83.36;99512.31;5049501;28;20525;-61
2021/11/03 02:37:42;;;;;;;31.05;15.48;;;;;;;4.27;83.37;99508.66;5047243;28;20036;-62
2021/11/03 02:40:26;;;;;;;45.92;18.27;;;;;;;4.30;83.06;99509.06;5051462;28;20045;-62
2021/11/03 02:43:03;;;;;;;35.28;16.38;;;;;;;4.28;83.30;99510.25;5050012;28;20114;-61
2021/11/03 02:45:40;;;;;;;38.67;17.20;;;;;;;4.27;83.53;99501.59;5033502;28;20103;-60
2021/11/03 02:48:07;;;;;;;36.75;16.58;;;;;;;4.30;83.07;99500.41;5049986;28;20056;-62
2021/11/03 02:50:33;;;;;;;33.15;16.50;;;;;;;4.29;83.53;99498.75;5033257;28;20048;-60
2021/11/03 02:52:59;;;;;;;38.63;16.95;;;;;;;4.20;83.70;99495.47;5051408;28;20037;-61
2021/11/03 02:55:26;;;;;;;36.22;17.83;;;;;;;4.19;83.88;99493.88;5033455;28;20043;-62
2021/11/03 02:57:52;;;;;;;35.22;16.50;;;;;;;4.20;83.79;99497.28;5030230;28;20080;-64
2021/11/03 03:00:20;;;;;;;30.70;15.50;;;;;;;4.20;83.66;99498.09;5049378;28;20053;-63
2021/11/03 03:02:46;;;;;;;34.67;15.98;;;;;;;4.13;84.86;99493.84;5032824;28;20063;-61
2021/11/03 03:05:13;;;;;;;36.08;16.02;;;;;;;4.19;84.45;99488.63;5049384;28;20049;-62
2021/11/03 03:07:39;;;;;;;32.55;16.10;;;;;;;4.28;84.25;99491.91;5049830;28;20506;-61
2021/11/03 03:10:07;;;;;;;38.65;17.50;;;;;;;4.25;83.61;99490.47;5049732;28;20526;-62
2021/11/03 03:12:33;;;;;;;40.88;16.88;;;;;;;4.22;84.70;99490.06;5033178;28;20084;-60
2021/11/03 03:15:00;;;;;;;41.00;17.48;;;;;;;4.19;84.69;99486.00;5049652;28;20044;-61
2021/11/03 03:17:28;;;;;;;36.00;16.05;;;;;;;4.14;85.15;99484.94;5049777;28;20043;-62
2021/11/03 03:19:54;;;;;;;35.75;17.17;;;;;;;4.12;84.51;99481.69;5049214;28;20057;-62
2021/11/03 03:22:21;;;;;;;38.45;17.55;;;;;;;4.16;84.59;99483.75;5049690;28;20056;-61
2021/11/03 03:24:52;;;;;;;34.42;15.73;;;;;;;4.22;84.87;99479.56;5033128;28;20060;-61
2021/11/03 03:27:18;;;;;;;35.17;15.82;;;;;;;4.17;84.58;99482.75;5051900;28;20502;-62
2021/11/03 03:29:45;;;;;;;37.22;16.63;;;;;;;4.23;85.05;99475.91;5053592;28;20072;-62
2021/11/03 03:32:11;;;;;;;33.22;16.92;;;;;;;4.32;83.93;99472.13;5036946;28;20041;-61
2021/11/03 03:34:37;;;;;;;32.65;16.30;;;;;;;4.42;83.77;99477.84;5054825;28;20060;-62
2021/11/03 03:37:04;;;;;;;31.55;15.98;;;;;;;4.46;83.46;99478.25;5053409;28;20131;-61
2021/11/03 03:39:33;;;;;;;35.88;17.75;;;;;;;4.52;83.20;99480.09;5053211;28;20049;-61
2021/11/03 03:42:03;;;;;;;38.58;17.33;;;;;;;4.53;83.86;99476.47;5036627;28;20057;-62
2021/11/03 03:44:30;;;;;;;37.38;17.15;;;;;;;4.47;83.93;99474.63;5054961;28;20051;-62
2021/11/03 03:46:56;;;;;;;37.30;16.60;;;;;;;4.46;83.29;99479.06;5036440;28;20071;-63
2021/11/03 03:49:23;;;;;;;33.95;16.85;;;;;;;4.54;83.13;99480.72;5054825;28;20049;-62
2021/11/03 03:51:49;;;;;;;35.67;15.85;;;;;;;4.60;83.32;99469.44;5052961;28;20404;-64
2021/11/03 03:54:15;;;;;;;39.67;16.70;;;;;;;4.57;82.83;99474.28;5054580;28;20112;-62
2021/11/03 03:56:41;;;;;;;38.72;17.00;;;;;;;4.52;83.62;99465.16;5052772;28;20037;-62
2021/11/03 03:59:08;;;;;;;35.78;16.27;;;;;;;4.54;83.40;99467.59;5036184;28;20041;-62
2021/11/03 04:01:37;;;;;;;34.40;16.05;;;;;;;4.57;83.04;99472.44;5052629;28;20463;-60
2021/11/03 04:04:07;;;;;;;32.50;16.10;;;;;;;4.56;83.71;99462.97;5052693;28;20073;-61
2021/11/03 04:06:33;;;;;;;36.47;17.10;;;;;;;4.50;84.04;99463.72;5052638;28;20041;-62
2021/11/03 04:09:02;;;;;;;32.60;16.85;;;;;;;4.50;83.56;99461.94;5052929;28;20084;-62
2021/11/03 04:11:28;;;;;;;39.00;16.83;;;;;;;4.48;83.81;99453.44;5054063;28;20067;-62
2021/11/03 04:13:53;;;;;;;40.80;16.75;;;;;;;4.40;83.62;99453.59;5052755;28;20057;-62
2021/11/03 04:16:22;;;;;;;36.03;17.17;;;;;;;4.37;84.44;99451.38;5052478;28;20385;-63
2021/11/03 04:18:49;;;;;;;37.33;17.63;;;;;;;4.27;84.93;99453.56;5052497;28;20473;-62
2021/11/03 04:21:15;;;;;;;37.45;17.33;;;;;;;4.28;84.53;99455.16;5052484;28;20060;-60
2021/11/03 04:23:44;;;;;;;42.70;18.75;;;;;;;4.28;85.18;99455.97;5052639;28;20049;-62
2021/11/03 04:26:19;;;;;;;45.92;19.75;;;;;;;4.26;85.03;99457.16;5052187;28;20124;-62
2021/11/03 04:28:44;;;;;;;40.60;18.23;;;;;;;4.28;84.73;99449.91;5053932;28;20038;-62
2021/11/03 04:31:10;;;;;;;40.13;18.42;;;;;;;4.33;84.98;99469.31;5052131;28;20132;-65
2021/11/03 04:33:36;;;;;;;43.75;19.60;;;;;;;4.31;84.79;99465.25;5052318;28;20387;-64
2021/11/03 04:36:03;;;;;;;40.80;17.92;;;;;;;4.29;85.10;99460.22;5052296;28;20091;-64
2021/11/03 04:38:30;;;;;;;40.72;17.40;;;;;;;4.29;84.83;99462.03;5034796;28;20041;-63
2021/11/03 04:40:57;;;;;;;37.42;16.67;;;;;;;4.34;85.11;99464.88;5051896;28;20056;-64
2021/11/03 04:43:23;;;;;;;42.00;17.15;;;;;;;4.38;84.43;99465.28;5052721;28;20458;-64
2021/11/03 04:45:49;;;;;;;37.53;17.40;;;;;;;4.36;85.23;99452.38;5052662;28;20040;-64
2021/11/03 04:48:15;;;;;;;42.67;18.55;;;;;;;4.42;84.75;99456.84;5051680;28;20049;-64
2021/11/03 04:50:41;;;;;;;42.58;18.27;;;;;;;4.51;83.74;99474.03;5052042;28;20060;-62
2021/11/03 04:53:07;;;;;;;38.13;16.02;;;;;;;4.50;83.72;99476.84;5051758;28;20048;-63
2021/11/03 04:55:36;;;;;;;36.30;17.95;;;;;;;4.53;84.21;99477.28;5051851;28;20409;-66
2021/11/03 04:58:03;;;;;;;36.95;17.55;;;;;;;4.61;83.45;99480.75;5051530;28;20045;-63
2021/11/03 05:00:31;;;;;;;41.33;17.15;;;;;;;4.59;84.11;99482.75;5051758;28;20132;-63
2021/11/03 05:02:59;;;;;;;39.42;18.35;;;;;;;4.59;83.31;99478.31;5051305;28;20123;-63
2021/11/03 05:05:26;;;;;;;37.53;16.73;;;;;;;4.59;83.69;99486.19;5051440;28;20116;-62
2021/11/03 05:07:54;;;;;;;43.72;17.98;;;;;;;4.59;83.27;99482.75;5034738;28;20482;-63
2021/11/03 05:10:21;;;;;;;40.72;17.67;;;;;;;4.64;83.93;99488.22;5053085;28;20375;-63
2021/11/03 05:12:47;;;;;;;40.05;18.23;;;;;;;4.62;83.19;99487.59;5051060;28;20052;-63
2021/11/03 05:15:13;;;;;;;40.83;17.92;;;;;;;4.59;83.97;99480.13;5051388;28;20052;-63
2021/11/03 05:17:42;;;;;;;47.08;18.08;;;;;;;4.55;83.71;99470.00;5051290;28;20463;-62
2021/11/03 05:20:13;;;;;;;38.67;17.80;;;;;;;4.55;83.72;99484.97;5051379;28;20091;-61
2021/11/03 05:22:47;;;;;;;45.90;19.63;;;;;;;4.55;84.19;99479.72;5003639;28;20045;-61
2021/11/03 05:25:22;;;;;;;43.33;18.42;;;;;;;4.58;84.03;99481.13;5052974;28;20052;-60
2021/11/03 05:27:49;;;;;;;41.70;18.63;;;;;;;4.54;84.70;99489.41;5052150;28;20082;-60
2021/11/03 05:30:15;;;;;;;42.45;17.85;;;;;;;4.61;84.57;99488.63;5052764;28;20053;-60
2021/11/03 05:32:40;;;;;;;45.20;19.73;;;;;;;4.63;84.58;99491.88;5052268;28;20041;-61
2021/11/03 05:35:07;;;;;;;46.92;20.48;;;;;;;4.64;84.44;99489.03;5052120;28;20482;-61
2021/11/03 05:37:33;;;;;;;50.08;19.83;;;;;;;4.69;84.37;99483.19;5050958;28;20514;-61
2021/11/03 05:39:59;;;;;;;44.38;18.05;;;;;;;4.70;83.77;99496.13;5051868;28;20064;-61
2021/11/03 05:42:25;;;;;;;42.92;20.35;;;;;;;4.75;83.72;99485.03;5051935;28;20509;-61
2021/11/03 05:44:51;;;;;;;45.75;20.83;;;;;;;4.76;83.47;99487.47;5034201;28;20080;-61
2021/11/03 05:47:24;;;;;;;47.40;20.67;;;;;;;4.78;83.16;99477.56;5051982;28;20490;-62
2021/11/03 05:49:50;;;;;;;42.53;17.50;;;;;;;4.79;83.16;99491.50;5050280;28;20094;-61
2021/11/03 05:52:17;;;;;;;41.72;17.58;;;;;;;4.81;83.19;99496.56;5050816;28;20040;-61
2021/11/03 05:54:43;;;;;;;40.42;18.63;;;;;;;4.78;82.80;99489.91;5050482;28;20049;-61
2021/11/03 05:57:20;;;;;;;41.13;18.70;;;;;;;4.85;82.50;99492.53;5051924;28;20047;-61
2021/11/03 05:59:47;;;;;;;45.45;19.42;;;;;;;4.78;83.04;99487.28;5044028;28;20753;-60
2021/11/03 06:02:12;;;;;;;40.63;18.77;;;;;;;4.89;82.48;99504.28;5046183;28;20044;-61
2021/11/03 06:04:38;;;;;;;46.83;20.10;;;;;;;4.88;83.09;99497.41;5047121;28;20048;-61
2021/11/03 06:07:04;;;;;;;47.65;18.48;;;;;;;4.83;82.80;99503.25;5047472;28;20044;-61
2021/11/03 06:09:31;;;;;;;46.13;20.13;;;;;;;4.79;83.13;99496.75;5046884;28;20041;-60
2021/11/03 06:11:57;;;;;;;44.20;19.35;;;;;;;4.83;83.15;99494.56;5048039;28;20074;-62
2021/11/03 06:14:28;;;;;;;48.80;20.67;;;;;;;4.92;82.80;99491.56;5048098;28;20132;-62
2021/11/03 06:16:55;;;;;;;48.42;20.17;;;;;;;4.92;83.09;99493.38;5014110;28;20056;-59
2021/11/03 06:19:21;;;;;;;40.53;18.83;;;;;;;4.91;82.84;99497.00;5044680;28;20498;-60
2021/11/03 06:21:46;;;;;;;44.15;20.13;;;;;;;4.91;82.73;99503.09;5047122;28;20061;-66
2021/11/03 06:24:12;;;;;;;42.72;20.13;;;;;;;4.93;82.41;99498.41;5046824;28;20499;-61
2021/11/03 06:26:38;;;;;;;45.58;20.90;;;;;;;5.00;82.80;99498.47;5047065;28;20041;-63
2021/11/03 06:29:06;;;;;;;52.17;19.85;;;;;;;4.98;82.80;99503.91;5048384;28;20052;-63
2021/11/03 06:31:33;;;;;;;47.67;21.73;;;;;;;4.99;82.73;99494.19;5045643;28;20041;-61
2021/11/03 06:34:00;;;;;;;42.55;19.65;;;;;;;5.00;82.71;99494.00;5047320;28;20634;-62
2021/11/03 06:36:26;;;;;;;46.90;20.48;;;;;;;5.07;82.87;99501.91;5048960;28;20128;-62
2021/11/03 06:38:51;;;;;;;46.60;20.95;;;;;;;5.04;82.51;99489.16;5048078;28;20183;-62
2021/11/03 06:41:18;;;;;;;51.20;21.45;;;;;;;5.05;82.15;99503.91;5047253;28;20437;-60
2021/11/03 06:43:44;;;;;;;48.30;21.33;;;;;;;5.06;82.29;99492.41;5047978;28;20093;-61
2021/11/03 06:46:10;;;;;;;46.30;20.42;;;;;;;4.97;82.82;99490.94;5029328;28;20040;-61
2021/11/03 06:48:36;;;;;;;48.83;21.08;;;;;;;5.04;81.99;99475.22;5046419;28;20534;-62
2021/11/03 06:51:02;;;;;;;44.17;19.08;;;;;;;4.98;82.45;99477.63;5026904;28;20041;-61
2021/11/03 06:53:28;;;;;;;43.20;19.00;;;;;;;4.95;82.98;99478.03;5029090;28;20055;-63
2021/11/03 06:55:54;;;;;;;46.42;20.23;;;;;;;4.98;82.80;99472.38;5034881;28;20052;-64
2021/11/03 06:58:21;;;;;;;57.00;22.23;;;;;;;5.07;82.60;99469.56;5048012;28;20048;-61
2021/11/03 07:00:49;;;;;;;49.05;21.23;;;;;;;5.12;82.96;99467.16;5043141;28;20215;-61
2021/11/03 07:03:15;;;;;;;45.15;19.27;;;;;;;5.12;82.22;99473.22;5029866;28;20061;-61
2021/11/03 07:05:45;;;;;;;45.33;19.80;;;;;;;5.09;81.86;99473.63;5040675;28;20040;-62
2021/11/03 07:08:11;;;;;;;44.55;21.15;;;;;;;5.07;82.39;99467.75;5049275;28;20617;-63
2021/11/03 07:10:40;;;;;;;49.22;21.30;;;;;;;5.16;82.55;99471.00;5051368;28;20040;-61
2021/11/03 07:13:07;;;;;;;52.28;21.90;;;;;;;5.16;82.06;99471.81;5049691;28;20047;-62
2021/11/03 07:15:33;;;;;;;52.50;20.45;;;;;;;5.14;81.85;99465.13;5050158;28;20033;-62
2021/11/03 07:17:59;;;;;;;54.70;22.38;;;;;;;5.14;82.18;99465.13;5049529;28;20044;-61
2021/11/03 07:20:25;;;;;;;47.35;21.17;;;;;;;5.18;81.65;99474.25;5050431;28;20131;-60
2021/11/03 07:22:51;;;;;;;46.50;21.27;;;;;;;5.18;82.01;99480.31;5000097;28;20541;-63
2021/11/03 07:25:20;;;;;;;48.33;20.73;;;;;;;5.18;81.91;99466.38;5052116;28;20044;-63
2021/11/03 07:27:47;;;;;;;51.05;22.48;;;;;;;5.18;81.82;99472.41;5051222;28;20078;-63
2021/11/03 07:30:15;;;;;;;43.83;19.70;;;;;;;5.14;81.48;99465.94;5049865;28;20037;-61
2021/11/03 07:32:41;;;;;;;48.33;20.58;;;;;;;5.17;81.77;99464.72;5051406;28;20529;-61
2021/11/03 07:35:07;;;;;;;46.28;21.58;;;;;;;5.27;80.90;99459.91;5051357;28;20060;-62
2021/11/03 07:37:33;;;;;;;52.60;22.55;;;;;;;5.25;81.62;99464.53;5051783;28;20186;-64
2021/11/03 07:39:59;;;;;;;48.88;21.45;;;;;;;5.33;81.09;99458.28;5051345;28;20083;-62
2021/11/03 07:42:25;;;;;;;47.10;20.65;;;;;;;5.41;80.77;99455.44;5051810;28;20498;-63
2021/11/03 07:44:55;;;;;;;51.33;22.30;;;;;;;5.44;81.04;99458.50;5032537;28;20493;-62
2021/11/03 07:47:20;;;;;;;52.00;21.23;;;;;;;5.46;80.56;99460.91;5048871;28;20045;-64
2021/11/03 07:49:46;;;;;;;52.35;22.52;;;;;;;5.44;80.64;99447.16;5050406;28;20055;-63
2021/11/03 07:52:12;;;;;;;51.88;22.88;;;;;;;5.47;80.72;99465.16;5049435;28;20051;-65
2021/11/03 07:54:38;;;;;;;47.50;22.25;;;;;;;5.42;80.46;99450.00;5051871;28;20045;-64
2021/11/03 07:57:04;;;;;;;50.60;22.65;;;;;;;5.47;80.90;99452.00;5051109;28;20047;-64
2021/11/03 07:59:29;;;;;;;51.83;22.42;;;;;;;5.52;80.12;99430.38;5051565;28;20090;-61
2021/11/03 08:01:55;;;;;;;49.45;21.35;;;;;;;5.47;80.14;99447.56;5051395;28;20391;-64
2021/11/03 08:04:21;;;;;;;51.88;22.88;;;;;;;5.57;80.27;99433.22;5050822;28;20041;-62
2021/11/03 08:06:47;;;;;;;50.15;23.00;;;;;;;5.61;80.17;99440.47;5051080;28;20083;-61
2021/11/03 08:09:13;;;;;;;49.80;22.25;;;;;;;5.65;80.27;99440.91;5049281;28;20053;-61
2021/11/03 08:11:56;;;;;;;56.65;24.08;;;;;;;5.58;80.38;99445.34;5051934;28;20066;-62
2021/11/03 08:14:25;;;;;;;49.58;20.73;;;;;;;5.47;80.00;99421.28;5032064;28;20124;-62
2021/11/03 08:16:55;;;;;;;51.03;22.27;;;;;;;5.57;80.43;99434.00;5047480;28;20048;-62
2021/11/03 08:19:22;;;;;;;43.28;20.30;;;;;;;5.53;80.42;99418.81;5050420;28;20051;-63
2021/11/03 08:21:48;;;;;;;50.58;22.13;;;;;;;5.57;80.26;99423.50;5051466;28;20444;-63
2021/11/03 08:24:14;;;;;;;49.85;22.17;;;;;;;5.58;79.91;99419.03;5051270;28;20048;-64
2021/11/03 08:26:40;;;;;;;47.17;22.90;;;;;;;5.64;80.30;99429.53;5051521;28;20052;-62
2021/11/03 08:29:06;;;;;;;47.05;20.92;;;;;;;5.67;80.00;99436.22;5050362;28;20072;-61
2021/11/03 08:31:32;;;;;;;51.28;21.55;;;;;;;5.67;80.11;99430.97;5049597;28;20517;-62
2021/11/03 08:33:58;;;;;;;49.17;22.98;;;;;;;5.69;80.02;99421.06;5048473;28;20182;-63
2021/11/03 08:36:24;;;;;;;49.70;21.90;;;;;;;5.76;79.86;99423.66;5048715;28;20437;-62
2021/11/03 08:38:51;;;;;;;48.63;22.35;;;;;;;5.79;79.70;99424.06;5049960;28;20315;-62
2021/11/03 08:41:19;;;;;;;49.95;22.88;;;;;;;5.84;79.30;99407.66;5047781;28;20102;-60
2021/11/03 08:43:46;;;;;;;47.40;21.75;;;;;;;5.87;79.07;99417.78;5048649;28;20548;-62
2021/11/03 08:46:12;;;;;;;48.30;22.90;;;;;;;5.98;78.78;99417.19;5049054;28;20503;-63
2021/11/03 08:48:38;;;;;;;53.65;22.35;;;;;;;6.02;78.58;99426.28;5051166;28;20495;-62
2021/11/03 08:51:04;;;;;;;51.05;23.88;;;;;;;6.06;78.07;99416.13;5050074;28;20044;-63
2021/11/03 08:53:30;;;;;;;49.83;22.42;;;;;;;6.03;78.45;99422.66;5049855;28;20076;-62
2021/11/03 08:55:56;;;;;;;49.25;22.80;;;;;;;5.95;78.41;99416.78;5049523;28;20413;-61
2021/11/03 08:58:24;;;;;;;49.58;23.40;;;;;;;6.00;78.65;99427.47;5047693;28;20048;-63
2021/11/03 09:00:52;;;;;;;53.03;23.35;;;;;;;6.04;78.11;99426.06;5050572;28;20127;-63
2021/11/03 09:03:19;;;;;;;51.55;23.60;;;;;;;6.06;78.75;99426.66;5048101;28;20087;-63
2021/11/03 09:05:44;;;;;;;49.92;23.20;;;;;;;6.10;78.12;99418.16;5047747;28;20041;-61
2021/11/03 09:08:15;;;;;;;53.92;24.08;;;;;;;6.19;77.37;99417.94;5047744;28;20037;-62
2021/11/03 09:10:47;;;;;;;47.05;22.27;;;;;;;6.07;78.02;99415.13;5011796;28;20143;-62
2021/11/03 09:13:19;;;;;;;55.65;26.08;;;;;;;6.06;77.83;99408.22;5037020;28;20483;-63
2021/11/03 09:15:45;;;;;;;50.25;24.27;;;;;;;6.12;77.70;99405.59;5050294;28;20491;-65
2021/11/03 09:18:16;;;;;;;48.10;22.10;;;;;;;6.10;78.01;99401.56;5049872;28;20043;-63
2021/11/03 09:20:45;;;;;;;51.13;24.77;;;;;;;6.08;77.76;99396.50;5026309;28;20071;-60
2021/11/03 09:23:12;;;;;;;51.38;24.23;;;;;;;6.04;77.70;99394.50;5029073;28;20597;-62
2021/11/03 09:25:38;;;;;;;55.47;24.38;;;;;;;6.04;78.14;99387.41;5048225;28;20037;-64
2021/11/03 09:28:04;;;;;;;48.33;24.20;;;;;;;6.09;77.98;99387.59;5047742;28;20056;-63
2021/11/03 09:30:31;;;;;;;49.15;22.52;;;;;;;6.06;78.33;99381.91;5048978;28;20056;-61
2021/11/03 09:32:59;;;;;;;52.75;25.65;;;;;;;6.13;77.88;99382.72;5049937;28;20051;-62
2021/11/03 09:35:33;;;;;;;51.67;24.98;;;;;;;6.18;77.96;99377.66;5047372;28;20518;-61
2021/11/03 09:38:00;;;;;;;46.70;24.00;;;;;;;6.17;77.94;99368.13;5047578;28;20037;-61
2021/11/03 09:40:31;;;;;;;50.88;24.25;;;;;;;6.18;77.56;99376.81;5046875;28;20132;-62
2021/11/03 09:42:58;;;;;;;58.50;27.95;;;;;;;6.22;77.77;99362.25;5048527;28;20414;-63
2021/11/03 09:45:35;;;;;;;50.10;24.13;;;;;;;6.29;77.86;99381.44;5042040;28;20179;-65
2021/11/03 09:48:24;;;;;;;55.17;25.70;;;;;;;6.29;77.80;99368.28;5048552;28;20041;-63
2021/11/03 09:50:54;;;;;;;49.28;24.65;;;;;;;6.25;77.54;99373.16;5047790;28;20051;-64
2021/11/03 09:53:24;;;;;;;53.13;25.00;;;;;;;6.21;77.71;99361.44;5046092;28;20055;-67
2021/11/03 09:55:51;;;;;;;53.08;23.85;;;;;;;6.28;77.38;99364.84;5047434;28;20548;-64
2021/11/03 09:58:25;;;;;;;48.53;25.02;;;;;;;6.29;77.77;99363.00;5047272;28;20099;-64
2021/11/03 10:01:00;;;;;;;49.58;25.25;;;;;;;6.31;77.51;99361.78;5047962;28;20053;-63
2021/11/03 10:03:55;;;;;;;51.30;24.67;;;;;;;6.30;77.61;99367.28;5049290;28;20051;-64
2021/11/03 10:06:39;;;;;;;50.35;26.05;;;;;;;6.30;77.78;99364.63;5048047;28;20135;-65
2021/11/03 10:09:05;;;;;;;52.88;26.17;;;;;;;6.32;77.51;99368.69;5046573;28;20054;-63
2021/11/03 10:11:34;;;;;;;51.90;25.60;;;;;;;6.34;77.70;99347.41;5047139;28;20040;-62
2021/11/03 10:14:01;;;;;;;53.47;25.67;;;;;;;6.38;77.80;99364.38;5050820;28;20118;-64
2021/11/03 10:16:37;;;;;;;51.85;24.17;;;;;;;6.34;77.94;99357.94;5051163;28;20044;-63
2021/11/03 10:19:31;;;;;;;53.05;27.33;;;;;;;6.36;77.89;99355.91;5046247;28;20058;-64
2021/11/03 10:21:59;;;;;;;61.40;27.60;;;;;;;6.34;78.75;99350.81;5047450;28;20048;-65
2021/11/03 10:24:33;;;;;;;61.33;28.23;;;;;;;6.31;78.43;99353.09;5047557;28;20514;-63
2021/11/03 10:27:15;;;;;;;59.83;28.73;;;;;;;6.35;78.30;99349.00;5045547;28;20037;-64
2021/11/03 10:29:48;;;;;;;56.22;27.77;;;;;;;6.40;78.31;99353.66;5045610;28;20516;-63
2021/11/03 10:32:40;;;;;;;56.50;27.63;;;;;;;6.40;79.18;99345.75;5025800;28;20095;-65
2021/11/03 10:35:26;;;;;;;56.08;26.13;;;;;;;6.35;79.05;99344.56;5026502;28;20037;-64
2021/11/03 10:38:10;;;;;;;51.92;26.98;;;;;;;6.35;79.45;99331.41;5045775;28;20072;-63
2021/11/03 10:41:02;;;;;;;53.67;27.83;;;;;;;6.42;79.67;99334.00;5046474;28;20110;-64
2021/11/03 10:43:35;;;;;;;53.10;26.75;;;;;;;6.44;79.86;99334.59;5045871;28;20048;-64
2021/11/03 10:46:16;;;;;;;58.13;28.08;;;;;;;6.47;79.38;99334.16;5047162;28;20047;-66
2021/11/03 10:48:50;;;;;;;53.50;26.83;;;;;;;6.52;79.85;99328.25;5013660;28;20069;-64
2021/11/03 10:51:24;;;;;;;60.50;28.38;;;;;;;6.43;80.14;99313.72;5045932;28;20207;-64
2021/11/03 10:53:54;;;;;;;56.72;28.65;;;;;;;6.48;80.12;99332.34;5027430;28;20045;-62
2021/11/03 10:56:30;;;;;;;56.92;27.38;;;;;;;6.46;80.21;99324.63;5046634;28;20502;-63
2021/11/03 10:59:25;;;;;;;60.17;28.27;;;;;;;6.47;80.42;99313.09;5047811;28;20048;-64
2021/11/03 11:01:53;;;;;;;53.70;26.98;;;;;;;6.50;80.10;99312.69;5047746;28;20048;-63
2021/11/03 11:04:26;;;;;;;57.20;28.17;;;;;;;6.43;80.20;99308.47;5042919;28;20475;-64
2021/11/03 11:07:23;;;;;;;55.30;28.35;;;;;;;6.42;80.94;99312.94;5046431;28;20086;-64
2021/11/03 11:09:55;;;;;;;56.80;28.67;;;;;;;6.40;80.75;99311.53;5045075;28;20052;-63
2021/11/03 11:12:22;;;;;;;56.05;28.67;;;;;;;6.44;81.04;99302.16;5043070;28;20062;-64
2021/11/03 11:14:49;;;;;;;53.92;29.25;;;;;;;6.51;80.73;99301.13;5042873;28;20049;-65
2021/11/03 11:17:14;;;;;;;57.42;26.77;;;;;;;6.49;80.80;99297.88;5046516;28;20037;-65
2021/11/03 11:20:11;;;;;;;54.58;26.48;;;;;;;6.51;80.94;99300.31;5045157;28;20706;-62
2021/11/03 11:22:58;;;;;;;48.35;24.95;;;;;;;6.51;80.49;99301.13;5047281;28;20041;-62
2021/11/03 11:25:49;;;;;;;48.83;25.95;;;;;;;6.54;80.42;99300.69;5044449;28;20403;-63
2021/11/03 11:28:46;;;;;;;50.22;27.83;;;;;;;6.51;81.20;99302.94;5030132;28;20044;-64
2021/11/03 11:31:14;;;;;;;45.42;25.27;;;;;;;6.50;80.75;99303.94;5026373;28;20040;-65
2021/11/03 11:34:00;;;;;;;50.03;25.05;;;;;;;6.39;80.77;99288.84;5042556;28;20049;-63
2021/11/03 11:36:33;;;;;;;44.38;25.27;;;;;;;6.48;81.48;99306.00;5038772;28;20037;-65